Erwinna, PA (18920)

5:04 AM EDT on September 21, 2014 (GMT -0400)
Lambs Hollow/Kingwood | Change Station
CLOSE
Current Station
Personal Weather Station
Location: Frenchtown, NJ
Elevation: 213 ft
Nearby Weather Stations

Elev 213 ft 40.51 °N, 75.04 °W | Updated 29 seconds ago

Overcast
Overcast
62.8 °F
Feels Like 62.8 °F
N
0.0
Wind Variable Wind from ENE
Gusts 0.0 mph

Today
High -- | Low -- °F
--% Chance of Precip.
Yesterday
High -- | Low -- °F
Precip. -- in
6:46 AM 6:59 PM
Waning Crescent, 8% visible
Pressure 29.91 in
Visibility 10.0 miles
Clouds Overcast 500 ft
Dew Point 62 °F
Humidity 97%
Rainfall 0.00 in
Snow Depth Not available.
UV 0 out of 12
Pollen 2.90 out of 12
Air Quality Not available.
Flu Activity Not available.
METAR KDYL 210854Z AUTO 00000KT 10SM OVC005 17/17 A2992 RMK AO2 SLP128 T01720172 56031

More Conditions Fewer Conditions

Pressure 29.91 in
Visibility 10.0 miles
Clouds Overcast 500 ft
Dew Point 62 °F
Humidity 97%
Rainfall 0.00 in
Snow Depth Not available.
UV 0 out of 12
Pollen 2.90 out of 12
Air Quality Not available.
Flu Activity Not available.
METAR KDYL 210854Z AUTO 00000KT 10SM OVC005 17/17 A2992 RMK AO2 SLP128 T01720172 56031

More Conditions Fewer Conditions

10-Day Weather Forecast

Almanac

Astronomy

Sep. 21, 2014 Rise Set
Actual Time 6:46 AM EDT 6:59 PM EDT
Civil Twilight 6:19 AM EDT 7:26 PM EDT
Nautical Twilight 5:47 AM EDT 7:58 PM EDT
Astronomical Twilight 5:15 AM EDT 8:30 PM EDT
Moon 4:17 AM EDT 5:34 PM EDT
Length of Visible Light 13h 06m
Length of Day
12h 12m
Tomorrow will be 2m 39s shorter.
Waning Crescent, 8% of the Moon is Illuminated
Today
Waning Crescent
Sep 24
New
Oct 1
First Quarter
Oct 8
Full
Oct 15
Last Quarter

Today's Extremes

State Highs State Lows

Community

WunderPhotos

Upload Photos

1,755,100 photos uploaded!

Nearby

Snow Depth

Station Depth Elevation
No new snow has been reported.

Earthquake Activity

City Distance Mag. Time & Date
No recent earthquake activity has been reported nearby.
Minimum magnitude displayed is 2.5.

Coastal Water Temperatures

Place Temperature
No Stations Reporting

Nearby Weather Stations